Axtell, TX

4:04 AM CST on February 27, 2017 (GMT -0600)
Leroy-Tours area | | Change Station

Elev 528 ft 31.75 °N, 97.03 °W | Updated 17 seconds ago

Overcast
Overcast
63.0 °F
Feels Like 63.0 °F
N
2.0
Wind Variable Wind from East

Today
High -- | Low -- °F
--% Chance of Precip.
Yesterday
High -- | Low -- °F
Precip. -- in
Pressure 29.91 in
Visibility 10.0 miles
Clouds Mostly Cloudy 1100 ft
Overcast 1600 ft
Dew Point 59 °F
Humidity 88%
Rainfall 0.00 in
Snow Depth Not available.
6:56 AM 6:24 PM
New Moon, 1% visible
SPECI KACT 271000Z AUTO 12005KT 10SM BKN011 OVC016 17/16 A2991 RMK AO2 T01720161 $
Pressure 29.91 in
Visibility 10.0 miles
Clouds Mostly Cloudy 1100 ft
Overcast 1600 ft
Dew Point 59 °F
Humidity 88%
Rainfall 0.00 in
Snow Depth Not available.
6:56 AM 6:24 PM
New Moon, 1% visible
SPECI KACT 271000Z AUTO 12005KT 10SM BKN011 OVC016 17/16 A2991 RMK AO2 T01720161 $

Get Your Daily Forecast Email!

Thanks for signing up!

Be on the lookout for a verification email in your inbox.

You'll start receiving the daily forecast at 8 AM.

×

10-Day Weather Forecast

Almanac

Astronomy

Feb. 27, 2017 Rise Set
Actual Time
Civil Twilight
Nautical Twilight
Astronomical Twilight
Moon
Length of Visible Light
Length of Day
Tomorrow will be .
, % of the Moon is Illuminated

Today's Extremes

State Highs State Lows

Community

WunderPhotos

Upload Photos

1,962,540 photos uploaded!

WunderBlog® & News

Nearby

Air Quality

  Air Quality AQ Index Pollutant
Not available.

Snow Depth

Station Depth Elevation

Earthquake Activity

City Distance Mag. Time & Date
Minimum magnitude displayed is 2.5.

Coastal Water Temperatures

Place Temperature

Stations

Nearby Weather Stations

Station Location Temp. Windchill Dew Point Humidity Wind Precip. Elev Updated Type
                   

Watches & Warnings

There are currently no watches in effect.